Time;durP1;ratioP1;P1;durP2;ratioP2;P2;SDS_P1;SDS_P2;PMS_P1;PMS_P2;Temp;Humidity;BMP_temperature;BMP_pressure;BME280_temperature;BME280_humidity;BME280_pressure;Samples;Min_cycle;Max_cycle;Signal;HPM_P1;HPM_P2
2023/11/01 00:01:17;;;;;;;11.33;5.30;;;;;;;10.02;89.61;94982.16;6103335;23;20661;-81
2023/11/01 00:03:43;;;;;;;15.20;6.40;;;;;;;10.14;88.81;94982.66;6129732;23;20155;-80
2023/11/01 00:06:08;;;;;;;10.60;5.97;;;;;;;10.10;89.29;94986.56;6127357;23;20152;-82
2023/11/01 00:08:33;;;;;;;12.03;6.13;;;;;;;10.12;89.01;94985.41;6126935;23;20172;-81
2023/11/01 00:10:59;;;;;;;4.63;2.07;;;;;;;10.24;88.51;94985.16;6103141;23;20604;-80
2023/11/01 00:13:24;;;;;;;6.93;2.10;;;;;;;10.21;88.50;94979.28;6101428;23;20183;-80
2023/11/01 00:15:49;;;;;;;7.43;2.63;;;;;;;10.24;88.47;94982.53;6101460;23;20162;-81
2023/11/01 00:18:14;;;;;;;5.90;2.90;;;;;;;10.15;88.96;94990.28;6126423;23;20156;-81
2023/11/01 00:20:40;;;;;;;14.43;6.17;;;;;;;10.12;89.48;94987.19;6102237;23;20570;-80
2023/11/01 00:23:05;;;;;;;9.07;2.90;;;;;;;10.09;88.75;94982.34;6126247;23;20612;-81
2023/11/01 00:25:30;;;;;;;3.07;1.57;;;;;;;9.92;89.40;94978.88;6100788;23;20159;-83
2023/11/01 00:27:56;;;;;;;7.70;2.67;;;;;;;10.03;89.42;94985.56;6125503;23;20155;-83
2023/11/01 00:30:21;;;;;;;14.17;6.57;;;;;;;10.04;89.34;94985.41;6101420;23;20182;-82
2023/11/01 00:32:46;;;;;;;10.90;4.80;;;;;;;10.03;90.18;94983.78;6125286;23;20179;-80
2023/11/01 00:35:12;;;;;;;11.10;5.53;;;;;;;10.00;90.50;94991.88;6100697;23;20160;-80
2023/11/01 00:37:37;;;;;;;9.53;4.47;;;;;;;9.87;91.87;94981.94;6101724;23;20156;-82
2023/11/01 00:40:03;;;;;;;11.40;5.20;;;;;;;9.98;91.88;94988.59;6125224;23;20279;-82
2023/11/01 00:42:29;;;;;;;15.00;6.93;;;;;;;9.96;92.18;94981.97;6099681;23;20156;-79
2023/11/01 00:44:54;;;;;;;16.80;6.80;;;;;;;9.91;93.16;94979.84;6101008;23;20160;-81
2023/11/01 00:47:19;;;;;;;19.23;8.07;;;;;;;9.80;93.64;94978.34;6125167;23;20152;-82
2023/11/01 00:49:44;;;;;;;12.37;5.70;;;;;;;10.07;92.25;94971.28;6101796;23;20188;-81
2023/11/01 00:52:10;;;;;;;18.70;8.10;;;;;;;10.02;92.85;94968.38;6100789;23;20547;-81
2023/11/01 00:54:35;;;;;;;21.80;9.27;;;;;;;10.05;93.16;94968.03;6124157;23;20874;-81
2023/11/01 00:57:00;;;;;;;12.87;6.37;;;;;;;10.04;93.45;94980.19;6100430;23;20238;-83
2023/11/01 00:59:26;;;;;;;7.43;2.87;;;;;;;9.99;93.83;94969.50;6099735;23;20239;-81
2023/11/01 01:01:51;;;;;;;15.27;6.53;;;;;;;10.05;93.52;94968.03;6123524;23;20160;-81
2023/11/01 01:04:16;;;;;;;13.00;5.93;;;;;;;10.17;92.36;94970.19;6099175;23;20164;-81
2023/11/01 01:06:41;;;;;;;23.83;8.60;;;;;;;10.10;93.38;94964.03;6099158;23;20159;-81
2023/11/01 01:09:07;;;;;;;10.70;4.40;;;;;;;10.03;93.41;94967.41;6123582;23;20167;-81
2023/11/01 01:11:33;;;;;;;6.40;2.77;;;;;;;10.14;93.32;94964.50;6099235;23;20164;-81
2023/11/01 01:13:58;;;;;;;7.03;2.63;;;;;;;10.07;93.23;94964.34;6098607;23;20168;-81
2023/11/01 01:16:23;;;;;;;15.33;6.83;;;;;;;10.02;93.44;94955.41;6098478;23;20655;-81
2023/11/01 01:18:49;;;;;;;8.83;3.93;;;;;;;10.02;93.68;94945.84;6098810;23;20195;-81
2023/11/01 01:21:14;;;;;;;4.87;2.50;;;;;;;9.80;93.82;94949.81;6098861;23;20183;-81
2023/11/01 01:23:40;;;;;;;14.97;5.93;;;;;;;10.01;92.64;94949.41;6123482;23;20148;-81
2023/11/01 01:26:05;;;;;;;14.73;5.03;;;;;;;9.98;92.85;94954.06;6098257;23;20156;-81
2023/11/01 01:28:30;;;;;;;15.30;7.67;;;;;;;9.93;92.65;94942.41;6125092;23;20255;-81
2023/11/01 01:30:55;;;;;;;13.73;5.43;;;;;;;9.91;92.55;94944.34;6099268;23;20190;-82
2023/11/01 01:33:21;;;;;;;17.10;7.57;;;;;;;10.01;91.48;94938.22;6101310;23;20191;-81
2023/11/01 01:35:46;;;;;;;7.67;3.50;;;;;;;10.01;91.66;94939.03;6098525;23;20599;-81
2023/11/01 01:38:11;;;;;;;13.17;6.40;;;;;;;9.90;92.02;94937.56;6099104;23;20167;-81
2023/11/01 01:40:37;;;;;;;12.07;4.83;;;;;;;10.05;91.61;94934.31;6123263;23;20207;-81
2023/11/01 01:43:09;;;;;;;16.87;7.47;;;;;;;9.97;91.33;94942.09;6123147;23;20152;-81
2023/11/01 01:45:35;;;;;;;11.47;4.80;;;;;;;9.88;92.18;94933.47;6122506;23;20184;-81
2023/11/01 01:48:00;;;;;;;12.80;4.63;;;;;;;9.85;91.83;94926.81;6098614;23;20623;-80
2023/11/01 01:50:25;;;;;;;11.97;6.00;;;;;;;9.87;91.67;94924.88;6098967;23;20170;-81
2023/11/01 01:52:51;;;;;;;7.43;3.67;;;;;;;9.89;91.33;94924.72;6098626;23;20180;-80
2023/11/01 01:55:16;;;;;;;8.90;3.27;;;;;;;9.74;91.71;94924.53;6097852;23;20168;-80
2023/11/01 01:57:42;;;;;;;9.13;3.90;;;;;;;9.92;90.39;94925.22;6098068;23;20624;-81
2023/11/01 02:00:08;;;;;;;11.70;4.93;;;;;;;9.78;91.41;94920.63;6123548;23;20176;-82
2023/11/01 02:02:33;;;;;;;6.23;2.07;;;;;;;9.86;90.95;94909.47;6099541;23;20156;-80
2023/11/01 02:04:59;;;;;;;11.10;4.80;;;;;;;9.70;91.43;94920.63;6099193;23;20695;-80
2023/11/01 02:07:24;;;;;;;5.50;2.67;;;;;;;9.83;90.04;94915.81;6124591;23;20179;-81
2023/11/01 02:09:49;;;;;;;15.27;7.00;;;;;;;9.87;90.76;94903.31;6125809;23;20176;-82
2023/11/01 02:12:15;;;;;;;9.80;4.43;;;;;;;9.75;90.50;94902.00;6123572;23;20176;-81
2023/11/01 02:14:40;;;;;;;5.37;2.17;;;;;;;9.73;90.36;94896.97;6123052;23;20250;-81
2023/11/01 02:17:06;;;;;;;8.03;3.17;;;;;;;9.56;91.44;94903.09;6099633;23;20328;-82
2023/11/01 02:19:32;;;;;;;13.07;6.07;;;;;;;9.55;91.13;94907.47;6098983;23;20572;-81
2023/11/01 02:21:57;;;;;;;9.13;3.80;;;;;;;9.64;90.64;94903.94;6099402;23;20170;-81
2023/11/01 02:24:22;;;;;;;6.77;3.20;;;;;;;9.54;90.93;94899.81;6122566;23;20156;-81
2023/11/01 02:26:47;;;;;;;5.97;3.13;;;;;;;9.61;90.67;94895.63;6098733;23;20155;-80
2023/11/01 02:29:13;;;;;;;11.77;4.20;;;;;;;9.59;90.89;94898.38;6098749;23;20184;-79
2023/11/01 02:31:38;;;;;;;15.20;5.00;;;;;;;9.44;90.97;94886.19;6098315;23;20164;-81
2023/11/01 02:34:08;;;;;;;8.60;2.83;;;;;;;9.51;90.88;94895.75;6099183;23;20190;-81
2023/11/01 02:36:34;;;;;;;8.67;4.07;;;;;;;9.59;89.84;94885.44;6124110;23;20156;-81
2023/11/01 02:39:00;;;;;;;9.97;2.90;;;;;;;9.64;89.75;94877.19;6098638;23;20444;-80
2023/11/01 02:41:25;;;;;;;7.07;3.20;;;;;;;9.48;90.26;94877.13;6122804;23;20170;-81
2023/11/01 02:43:50;;;;;;;9.43;3.87;;;;;;;9.55;90.34;94878.94;6098422;23;20238;-81
2023/11/01 02:46:16;;;;;;;7.43;3.57;;;;;;;9.60;89.52;94878.47;6097556;23;20170;-81
2023/11/01 02:48:41;;;;;;;6.10;2.10;;;;;;;9.51;90.10;94875.03;6123097;23;20628;-80
2023/11/01 02:51:06;;;;;;;7.33;3.67;;;;;;;9.46;90.19;94879.09;6097983;23;20651;-82
2023/11/01 02:53:32;;;;;;;13.43;5.77;;;;;;;9.55;89.65;94881.53;6123050;23;20179;-80
2023/11/01 02:55:57;;;;;;;7.87;3.70;;;;;;;9.44;90.32;94874.03;6097762;23;20171;-82
2023/11/01 02:58:23;;;;;;;6.90;2.60;;;;;;;9.50;89.96;94880.38;6098446;23;20183;-81
2023/11/01 03:00:49;;;;;;;14.07;5.23;;;;;;;9.31;91.20;94876.25;6098740;23;20159;-81
2023/11/01 03:03:14;;;;;;;8.67;3.50;;;;;;;9.54;89.61;94869.56;6099781;23;20175;-81
2023/11/01 03:05:40;;;;;;;11.70;3.10;;;;;;;9.55;89.62;94868.59;6124046;23;20160;-81
2023/11/01 03:08:05;;;;;;;14.07;4.37;;;;;;;9.70;88.32;94866.16;6098302;23;20166;-81
2023/11/01 03:10:30;;;;;;;9.50;3.47;;;;;;;9.63;87.83;94858.25;6123029;23;20159;-81
2023/11/01 03:12:56;;;;;;;11.00;3.60;;;;;;;9.69;88.00;94856.78;6123084;23;20184;-81
2023/11/01 03:15:21;;;;;;;11.60;3.20;;;;;;;9.68;87.75;94862.94;6121708;23;20467;-82
2023/11/01 03:17:47;;;;;;;15.70;6.60;;;;;;;9.66;86.96;94862.28;6122675;23;20156;-82
2023/11/01 03:20:12;;;;;;;14.63;6.40;;;;;;;9.63;87.62;94857.44;6098758;23;20723;-81
2023/11/01 03:22:38;;;;;;;7.77;3.00;;;;;;;9.67;87.17;94863.91;6121931;23;20160;-81
2023/11/01 03:25:03;;;;;;;8.03;3.03;;;;;;;9.67;87.27;94853.53;6097405;23;20160;-82
2023/11/01 03:27:29;;;;;;;8.90;4.23;;;;;;;9.57;87.28;94863.22;6122324;23;20152;-80
2023/11/01 03:29:56;;;;;;;7.93;4.57;;;;;;;9.45;88.07;94860.09;6097838;23;20187;-81
2023/11/01 03:32:24;;;;;;;12.57;4.63;;;;;;;9.54;87.20;94864.38;6097903;23;20187;-81
2023/11/01 03:34:49;;;;;;;12.30;3.40;;;;;;;9.60;86.93;94862.91;6097809;23;20608;-82
2023/11/01 03:37:14;;;;;;;13.97;5.67;;;;;;;9.54;87.30;94855.75;6122353;23;20191;-81
2023/11/01 03:39:40;;;;;;;14.03;6.73;;;;;;;9.39;87.81;94862.53;6098052;23;20524;-82
2023/11/01 03:42:05;;;;;;;14.50;4.33;;;;;;;9.52;86.93;94855.09;6098186;23;20191;-81
2023/11/01 03:44:32;;;;;;;8.27;3.57;;;;;;;9.41;87.34;94850.22;6121171;23;20498;-80
2023/11/01 03:46:58;;;;;;;10.10;3.30;;;;;;;9.65;85.90;94840.72;6121959;23;20627;-81
2023/11/01 03:49:29;;;;;;;3.73;1.30;;;;;;;9.60;85.81;94836.97;6097301;23;20562;-81
2023/11/01 03:51:58;;;;;;;6.37;1.77;;;;;;;9.53;86.54;94830.81;6097901;23;20215;-80
2023/11/01 03:54:23;;;;;;;2.83;0.90;;;;;;;9.61;85.50;94836.00;6121726;23;20179;-80
2023/11/01 03:56:48;;;;;;;3.50;1.07;;;;;;;9.48;86.36;94822.72;6097759;23;20620;-80
2023/11/01 03:59:14;;;;;;;8.97;2.93;;;;;;;9.47;86.09;94827.09;6097797;23;20278;-82
2023/11/01 04:01:39;;;;;;;5.40;1.60;;;;;;;9.51;85.90;94824.97;6074543;23;20160;-81
2023/11/01 04:04:05;;;;;;;5.70;1.10;;;;;;;9.45;86.02;94820.41;6122436;23;20212;-80
2023/11/01 04:06:30;;;;;;;4.13;1.17;;;;;;;9.42;85.61;94812.97;6097873;23;20160;-81
2023/11/01 04:08:55;;;;;;;5.97;1.93;;;;;;;9.44;85.87;94811.84;6122352;23;20255;-81
2023/11/01 04:11:21;;;;;;;9.00;3.73;;;;;;;9.41;85.16;94819.94;6122446;23;20481;-81
2023/11/01 04:13:46;;;;;;;3.33;1.30;;;;;;;9.17;86.79;94815.47;6121752;23;20180;-81
2023/11/01 04:16:11;;;;;;;1.53;1.20;;;;;;;9.38;85.64;94817.66;6121851;23;20160;-81
2023/11/01 04:18:36;;;;;;;1.93;1.00;;;;;;;9.35;85.40;94808.41;6122688;23;20184;-81
2023/11/01 04:21:02;;;;;;;4.53;2.30;;;;;;;9.34;85.81;94811.16;6122344;23;20156;-81
2023/11/01 04:23:27;;;;;;;3.13;1.33;;;;;;;9.30;85.15;94815.06;6099403;23;20155;-81
2023/11/01 04:25:53;;;;;;;3.07;1.00;;;;;;;9.30;85.75;94820.22;6098824;23;20179;-81
2023/11/01 04:28:18;;;;;;;1.63;0.70;;;;;;;9.34;85.59;94811.16;6126735;23;20148;-81
2023/11/01 04:30:43;;;;;;;5.63;1.10;;;;;;;9.32;86.04;94807.94;6100855;23;20184;-81
2023/11/01 04:33:12;;;;;;;4.20;1.13;;;;;;;9.48;85.25;94801.97;6124042;23;20635;-82
2023/11/01 04:35:37;;;;;;;4.20;1.07;;;;;;;9.46;84.92;94796.16;6099004;23;20183;-81
2023/11/01 04:38:03;;;;;;;4.43;1.00;;;;;;;9.38;85.51;94788.34;6099013;23;20160;-82
2023/11/01 04:40:28;;;;;;;4.13;1.00;;;;;;;9.39;85.81;94782.19;6123710;23;20498;-81
2023/11/01 04:42:54;;;;;;;2.57;0.93;;;;;;;9.38;85.57;94780.59;6123344;23;20210;-81
2023/11/01 04:45:19;;;;;;;2.53;1.10;;;;;;;9.44;85.41;94777.34;6098753;23;20234;-82
2023/11/01 04:47:46;;;;;;;3.00;1.23;;;;;;;9.45;85.25;94773.78;6099220;23;20255;-80
2023/11/01 04:50:13;;;;;;;4.40;1.10;;;;;;;9.42;85.70;94782.69;6123559;23;20172;-81
2023/11/01 04:52:39;;;;;;;2.77;0.97;;;;;;;9.47;85.30;94780.44;6099371;23;20275;-80
2023/11/01 04:55:04;;;;;;;4.23;1.07;;;;;;;9.39;85.24;94780.41;6098860;23;20234;-80
2023/11/01 04:57:30;;;;;;;2.77;1.20;;;;;;;9.36;85.88;94778.97;6099085;23;20170;-81
2023/11/01 04:59:55;;;;;;;1.63;1.10;;;;;;;9.39;85.19;94780.41;6099321;23;20201;-81
2023/11/01 05:02:21;;;;;;;4.67;1.10;;;;;;;9.33;85.77;94771.50;6124578;23;20249;-82
2023/11/01 05:04:47;;;;;;;5.17;0.93;;;;;;;9.35;85.93;94769.53;6099322;23;20167;-81
2023/11/01 05:07:12;;;;;;;2.50;0.90;;;;;;;9.33;86.33;94763.72;6100983;23;20514;-81
2023/11/01 05:09:37;;;;;;;3.23;1.00;;;;;;;9.27;86.15;94766.94;6125526;23;20702;-81
2023/11/01 05:12:03;;;;;;;1.83;1.00;;;;;;;9.20;86.44;94763.38;6100208;23;20184;-81
2023/11/01 05:14:28;;;;;;;2.77;0.93;;;;;;;9.18;86.78;94761.88;6100786;23;20156;-82
2023/11/01 05:16:54;;;;;;;2.30;1.00;;;;;;;9.13;87.53;94757.19;6127166;23;20666;-81
2023/11/01 05:19:19;;;;;;;3.77;1.13;;;;;;;9.14;87.43;94763.19;6126526;23;20172;-81
2023/11/01 05:21:45;;;;;;;1.93;1.17;;;;;;;9.14;87.27;94760.59;6078296;23;20167;-82
2023/11/01 05:24:10;;;;;;;2.83;1.00;;;;;;;9.00;88.06;94764.59;6102856;23;20163;-80
2023/11/01 05:26:35;;;;;;;3.13;0.90;;;;;;;9.04;87.97;94752.97;6126044;23;20168;-80
2023/11/01 05:29:01;;;;;;;2.27;1.10;;;;;;;9.05;87.56;94755.38;6126255;23;20180;-82
2023/11/01 05:31:27;;;;;;;4.60;1.40;;;;;;;8.97;88.07;94754.56;6126378;23;20214;-80
2023/11/01 05:33:53;;;;;;;4.37;1.10;;;;;;;8.93;88.37;94761.03;6128204;23;20228;-82
2023/11/01 05:36:18;;;;;;;3.30;1.30;;;;;;;8.94;88.56;94762.66;6128166;23;20156;-81
2023/11/01 05:38:44;;;;;;;2.60;1.07;;;;;;;9.00;88.35;94759.41;6126649;23;20259;-82
2023/11/01 05:41:09;;;;;;;4.47;1.27;;;;;;;8.91;89.03;94757.75;6125498;23;20207;-81
2023/11/01 05:43:38;;;;;;;2.30;1.30;;;;;;;8.90;88.68;94756.13;6100383;23;20167;-80
2023/11/01 05:46:07;;;;;;;2.07;1.20;;;;;;;8.85;88.92;94755.81;6124819;23;20156;-81
2023/11/01 05:48:33;;;;;;;3.00;1.20;;;;;;;8.83;89.19;94755.94;6101469;23;20184;-81
2023/11/01 05:51:02;;;;;;;2.90;1.27;;;;;;;8.87;88.97;94761.66;6125075;23;20187;-81
2023/11/01 05:53:28;;;;;;;3.67;1.30;;;;;;;8.80;89.80;94756.28;6100205;23;20186;-81
2023/11/01 05:55:53;;;;;;;3.70;1.47;;;;;;;8.91;89.22;94757.75;6099040;23;20251;-80
2023/11/01 05:58:19;;;;;;;4.80;1.00;;;;;;;8.97;88.75;94751.97;6123905;23;20492;-80
2023/11/01 06:00:47;;;;;;;3.70;1.03;;;;;;;8.89;88.71;94755.34;6098904;23;20171;-81
2023/11/01 06:03:15;;;;;;;4.60;1.00;;;;;;;8.95;88.59;94754.72;6099066;23;20159;-82
2023/11/01 06:05:41;;;;;;;2.63;1.13;;;;;;;8.90;88.27;94746.59;6122286;23;20474;-82
2023/11/01 06:08:08;;;;;;;4.43;1.30;;;;;;;8.94;88.45;94749.69;6098327;23;20187;-82
2023/11/01 06:10:35;;;;;;;4.30;1.30;;;;;;;8.87;88.30;94744.31;6098883;23;20168;-80
2023/11/01 06:13:01;;;;;;;7.30;1.30;;;;;;;8.90;88.61;94746.59;6098300;23;20188;-79
2023/11/01 06:15:26;;;;;;;2.77;1.10;;;;;;;8.84;88.66;94755.00;6099568;23;20715;-81
2023/11/01 06:17:52;;;;;;;2.60;1.30;;;;;;;8.78;88.92;94751.25;6124993;23;20195;-80
2023/11/01 06:20:17;;;;;;;2.60;1.20;;;;;;;8.84;89.18;94756.78;6099838;23;20207;-81
2023/11/01 06:22:42;;;;;;;2.73;1.40;;;;;;;8.89;88.44;94755.34;6099262;23;20251;-81
2023/11/01 06:25:08;;;;;;;2.57;1.10;;;;;;;8.86;88.54;94747.88;6122620;23;20176;-80
2023/11/01 06:27:35;;;;;;;5.33;1.13;;;;;;;8.82;88.53;94745.75;6123301;23;20160;-80
2023/11/01 06:30:01;;;;;;;2.10;1.10;;;;;;;8.82;88.60;94750.94;6098561;23;20186;-80
2023/11/01 06:32:27;;;;;;;2.73;1.00;;;;;;;8.77;88.84;94754.81;6123717;23;20180;-80
2023/11/01 06:34:53;;;;;;;3.30;1.03;;;;;;;8.82;88.32;94756.09;6121554;23;20178;-81
2023/11/01 06:37:18;;;;;;;4.47;1.00;;;;;;;8.86;88.00;94762.63;6097404;23;20508;-81
2023/11/01 06:39:43;;;;;;;5.43;1.27;;;;;;;8.86;88.06;94760.84;6122028;23;20175;-81
2023/11/01 06:42:08;;;;;;;2.03;1.17;;;;;;;8.86;88.68;94763.41;6097318;23;20156;-82
2023/11/01 06:44:34;;;;;;;3.30;1.03;;;;;;;8.86;88.44;94783.31;6097046;23;20160;-81
2023/11/01 06:46:59;;;;;;;2.83;1.30;;;;;;;8.75;89.02;94774.88;6098327;23;20160;-82
2023/11/01 06:49:25;;;;;;;2.63;1.10;;;;;;;8.79;88.58;94773.59;6098045;23;21071;-82
2023/11/01 06:51:51;;;;;;;6.07;1.30;;;;;;;8.83;88.41;94766.31;6121481;23;20179;-81
2023/11/01 06:54:16;;;;;;;6.20;1.20;;;;;;;8.85;88.46;94766.16;6097321;23;20377;-81
2023/11/01 06:56:45;;;;;;;2.83;1.20;;;;;;;8.83;87.81;94763.72;6078371;23;1079084;-82
2023/11/01 06:59:13;;;;;;;3.73;1.27;;;;;;;8.79;88.23;94771.00;6123780;23;20179;-81
2023/11/01 07:01:39;;;;;;;4.90;1.40;;;;;;;8.93;87.09;94767.00;6098950;23;20208;-83
2023/11/01 07:04:05;;;;;;;2.97;1.00;;;;;;;8.96;87.46;94765.88;6122987;23;20215;-81
2023/11/01 07:06:30;;;;;;;1.67;1.30;;;;;;;8.92;87.59;94768.00;6097824;23;20174;-81
2023/11/01 07:08:56;;;;;;;2.53;1.27;;;;;;;8.98;87.00;94771.72;6098836;23;20248;-82
2023/11/01 07:11:21;;;;;;;4.73;1.27;;;;;;;9.06;86.91;94767.38;6122493;23;20585;-82
2023/11/01 07:13:46;;;;;;;7.33;1.43;;;;;;;9.24;85.90;94756.91;6098345;23;20278;-81
2023/11/01 07:16:12;;;;;;;3.73;1.40;;;;;;;9.16;86.35;94748.28;6122225;23;20152;-80
2023/11/01 07:18:40;;;;;;;2.10;1.20;;;;;;;9.17;86.13;94753.31;6122387;23;20247;-82
2023/11/01 07:21:09;;;;;;;4.63;1.40;;;;;;;8.96;86.53;94758.13;6098087;23;20164;-81
2023/11/01 07:23:34;;;;;;;3.33;1.33;;;;;;;9.11;86.35;94753.16;6123029;23;20239;-82
2023/11/01 07:25:59;;;;;;;2.43;1.40;;;;;;;9.24;85.39;94743.94;6122209;23;20191;-80
2023/11/01 07:28:25;;;;;;;3.23;1.73;;;;;;;9.30;84.72;94743.31;6115307;23;21319;-80
2023/11/01 07:30:50;;;;;;;5.23;1.63;;;;;;;9.38;84.44;94745.13;6130099;23;20168;-77
2023/11/01 07:33:15;;;;;;;3.47;1.70;;;;;;;9.23;84.65;94751.88;6154158;23;20182;-78
2023/11/01 07:35:41;;;;;;;2.40;1.60;;;;;;;9.36;84.29;94755.66;6152420;23;20144;-79
2023/11/01 07:38:06;;;;;;;3.53;1.30;;;;;;;9.33;84.32;94743.00;6154231;23;20168;-79
2023/11/01 07:40:32;;;;;;;2.33;1.70;;;;;;;9.40;83.85;94739.78;6154635;23;20182;-80
2023/11/01 07:42:57;;;;;;;2.60;1.73;;;;;;;9.36;83.52;94729.72;6154923;23;20175;-79
2023/11/01 07:45:22;;;;;;;1.93;1.73;;;;;;;9.23;84.08;94731.16;6130388;23;20171;-79
2023/11/01 07:47:48;;;;;;;3.00;1.70;;;;;;;9.38;83.54;94731.34;6155047;23;20651;-78
2023/11/01 07:50:13;;;;;;;1.73;1.50;;;;;;;9.46;83.22;94736.53;6154653;23;20245;-79
2023/11/01 07:52:39;;;;;;;2.20;1.43;;;;;;;9.48;83.08;94740.59;6151888;23;20498;-80
2023/11/01 07:55:05;;;;;;;5.20;2.17;;;;;;;9.66;82.62;94737.84;6105341;23;20156;-80
2023/11/01 07:57:31;;;;;;;2.20;1.60;;;;;;;9.71;82.63;94735.56;6157590;23;20160;-80
2023/11/01 07:59:57;;;;;;;2.10;1.53;;;;;;;9.88;81.89;94732.00;6157286;23;20181;-81
2023/11/01 08:02:22;;;;;;;3.37;1.50;;;;;;;10.06;81.42;94728.41;6134447;23;20175;-82
2023/11/01 08:04:48;;;;;;;5.40;1.67;;;;;;;10.15;80.74;94725.63;6109147;23;20480;-81
2023/11/01 08:07:13;;;;;;;2.40;1.47;;;;;;;10.13;80.40;94726.78;6135725;23;20162;-81
2023/11/01 08:09:39;;;;;;;4.47;1.30;;;;;;;10.10;80.54;94730.53;6111781;23;20179;-80
2023/11/01 08:12:05;;;;;;;2.23;1.60;;;;;;;10.30;79.79;94735.38;6138293;23;20155;-80
2023/11/01 08:14:30;;;;;;;3.50;1.47;;;;;;;10.39;79.21;94724.00;6140897;23;20179;-80
2023/11/01 08:17:53;;;;;;;2.50;1.50;;;;;;;10.47;79.43;94731.78;6144317;23;20214;-81
2023/11/01 08:20:18;;;;;;;3.70;1.30;;;;;;;10.60;78.64;94736.44;6105793;23;20183;-81
2023/11/01 08:22:44;;;;;;;2.20;1.43;;;;;;;10.37;79.36;94731.16;6076558;23;20160;-82
2023/11/01 08:25:09;;;;;;;3.30;1.50;;;;;;;10.54;79.18;94729.34;6073038;23;20160;-83
2023/11/01 08:27:34;;;;;;;6.60;1.63;;;;;;;10.65;78.51;94726.38;6049774;23;20167;-81
2023/11/01 08:30:00;;;;;;;1.90;1.37;;;;;;;10.80;78.29;94729.09;6072269;23;20202;-80
2023/11/01 08:32:25;;;;;;;1.87;1.53;;;;;;;10.82;78.13;94734.91;6072496;23;20188;-82
2023/11/01 08:34:50;;;;;;;3.90;1.30;;;;;;;11.10;77.29;94736.06;6098034;23;20849;-81
2023/11/01 08:37:16;;;;;;;3.83;1.20;;;;;;;11.16;77.40;94727.59;6074981;23;20623;-81
2023/11/01 08:39:42;;;;;;;2.80;1.07;;;;;;;11.15;76.91;94728.59;6073478;23;20216;-81
2023/11/01 08:42:07;;;;;;;2.00;0.93;;;;;;;11.33;76.69;94728.31;6049439;23;20164;-81
2023/11/01 08:44:32;;;;;;;3.57;1.00;;;;;;;11.35;76.56;94732.34;6048018;23;20667;-81
2023/11/01 08:47:08;;;;;;;4.50;1.30;;;;;;;11.52;75.77;94737.47;6073700;23;20278;-81
2023/11/01 08:49:33;;;;;;;4.17;1.17;;;;;;;11.51;74.82;94738.44;6073556;23;20184;-81
2023/11/01 08:51:59;;;;;;;1.03;0.90;;;;;;;11.71;73.98;94730.97;6069219;23;20171;-80
2023/11/01 08:54:27;;;;;;;3.90;1.10;;;;;;;11.90;73.51;94730.53;6090786;23;20179;-80
2023/11/01 08:56:53;;;;;;;2.43;1.40;;;;;;;11.81;73.88;94731.59;6112494;23;20160;-81
2023/11/01 08:59:18;;;;;;;2.93;1.87;;;;;;;12.13;73.02;94725.31;6127080;23;20580;-80
2023/11/01 09:01:43;;;;;;;4.17;1.80;;;;;;;12.10;73.14;94721.28;6127692;23;20156;-80
2023/11/01 09:04:09;;;;;;;3.27;1.50;;;;;;;12.09;73.61;94724.81;6127392;23;20468;-79
2023/11/01 09:06:36;;;;;;;3.43;1.13;;;;;;;12.21;73.17;94733.03;6126867;23;20514;-81
2023/11/01 09:09:01;;;;;;;4.30;1.30;;;;;;;12.33;72.46;94718.59;6103692;23;20187;-81
2023/11/01 09:11:26;;;;;;;3.40;1.30;;;;;;;12.42;72.47;94724.53;6128332;23;20624;-82
2023/11/01 09:13:52;;;;;;;2.87;1.33;;;;;;;12.62;72.07;94723.00;6130078;23;20238;-82
2023/11/01 09:16:19;;;;;;;2.50;1.00;;;;;;;12.48;72.05;94709.00;6105417;23;20182;-80
2023/11/01 09:18:44;;;;;;;2.73;1.70;;;;;;;12.49;71.59;94715.00;6104964;23;20183;-80
2023/11/01 09:21:10;;;;;;;4.27;1.30;;;;;;;12.56;72.39;94713.31;6105539;23;20666;-82
2023/11/01 09:23:35;;;;;;;1.13;1.03;;;;;;;12.52;71.79;94719.03;6104683;23;20725;-82
2023/11/01 09:26:01;;;;;;;5.77;1.20;;;;;;;12.59;72.14;94723.34;6106232;23;20163;-81
2023/11/01 09:28:26;;;;;;;1.30;1.20;;;;;;;12.77;71.92;94723.81;6106922;23;20179;-81
2023/11/01 09:30:52;;;;;;;2.30;1.50;;;;;;;12.95;70.67;94707.78;6105435;23;20161;-81
2023/11/01 09:33:17;;;;;;;3.37;1.13;;;;;;;12.28;71.93;94723.53;6106379;23;20586;-81
2023/11/01 09:35:43;;;;;;;3.50;1.40;;;;;;;12.56;71.63;94715.91;6104531;23;20170;-80
2023/11/01 09:38:08;;;;;;;3.00;1.20;;;;;;;12.64;71.54;94718.44;6129310;23;20152;-83
2023/11/01 09:40:34;;;;;;;2.17;1.00;;;;;;;12.66;71.14;94721.66;6104822;23;20170;-80
2023/11/01 09:42:59;;;;;;;2.83;1.40;;;;;;;12.72;70.99;94720.09;6106325;23;20155;-81
2023/11/01 09:45:24;;;;;;;1.23;1.13;;;;;;;12.40;71.85;94718.69;6105625;23;20155;-82
2023/11/01 09:47:50;;;;;;;2.23;1.03;;;;;;;12.59;71.45;94720.75;6130740;23;20155;-81
2023/11/01 09:50:17;;;;;;;4.20;1.93;;;;;;;12.94;70.69;94729.63;6105694;23;20179;-81
2023/11/01 09:52:42;;;;;;;3.07;1.47;;;;;;;12.95;70.59;94726.03;6129915;23;20187;-82
2023/11/01 09:55:08;;;;;;;1.93;1.13;;;;;;;12.93;70.92;94722.81;6105746;23;20169;-82
2023/11/01 09:57:34;;;;;;;2.20;1.30;;;;;;;13.29;69.67;94717.63;6099573;23;20242;-81
2023/11/01 10:00:03;;;;;;;2.50;1.40;;;;;;;13.27;69.25;94717.03;6125005;23;20185;-80
2023/11/01 10:02:28;;;;;;;1.40;1.27;;;;;;;12.93;70.19;94720.19;6126312;23;20179;-81
2023/11/01 10:04:53;;;;;;;4.00;1.20;;;;;;;12.86;70.67;94716.69;6128031;23;20263;-81
2023/11/01 10:07:19;;;;;;;4.13;1.33;;;;;;;12.97;70.11;94707.59;6105540;23;20162;-81
2023/11/01 10:09:44;;;;;;;1.83;1.10;;;;;;;13.19;69.27;94711.91;6106969;23;20182;-81
2023/11/01 10:12:13;;;;;;;2.17;1.30;;;;;;;13.11;69.77;94714.59;6104278;23;20294;-80
2023/11/01 10:14:38;;;;;;;2.37;1.17;;;;;;;12.93;69.75;94706.38;6105111;23;20166;-81
2023/11/01 10:17:04;;;;;;;3.47;1.20;;;;;;;12.81;70.46;94713.84;6107497;23;20607;-82
2023/11/01 10:19:30;;;;;;;4.53;1.20;;;;;;;12.88;70.17;94708.69;6129193;23;20175;-83
2023/11/01 10:21:55;;;;;;;3.30;1.10;;;;;;;13.03;70.30;94701.66;6127472;23;20595;-81
2023/11/01 10:24:23;;;;;;;1.90;1.13;;;;;;;12.98;69.99;94693.56;6129901;23;20151;-81
2023/11/01 10:26:49;;;;;;;1.47;1.17;;;;;;;13.23;70.25;94691.47;6130339;23;20502;-82
2023/11/01 10:29:14;;;;;;;2.23;1.03;;;;;;;13.35;69.57;94690.03;6129806;23;20199;-82
2023/11/01 10:31:40;;;;;;;0.90;0.77;;;;;;;13.30;68.73;94689.75;6105660;23;20196;-82
2023/11/01 10:34:12;;;;;;;1.53;0.80;;;;;;;13.27;68.79;94682.31;6105898;23;20635;-81
2023/11/01 10:36:51;;;;;;;1.90;0.93;;;;;;;13.70;67.63;94672.69;6105421;23;20334;-82
2023/11/01 10:39:20;;;;;;;7.77;1.53;;;;;;;13.51;66.11;94674.09;6129659;23;20182;-82
2023/11/01 10:41:51;;;;;;;1.47;1.13;;;;;;;13.38;66.22;94666.19;6129388;23;20170;-81
2023/11/01 10:44:20;;;;;;;1.57;1.00;;;;;;;13.48;66.20;94671.88;6129324;23;20234;-81
2023/11/01 10:46:47;;;;;;;1.60;1.00;;;;;;;13.85;66.23;94670.78;6128608;23;20260;-81
2023/11/01 10:49:12;;;;;;;1.47;0.90;;;;;;;13.90;65.00;94667.63;6105485;23;20175;-81
2023/11/01 10:51:39;;;;;;;1.87;0.97;;;;;;;13.74;66.00;94666.09;6105682;23;20163;-82
2023/11/01 10:54:04;;;;;;;2.37;1.00;;;;;;;13.81;65.66;94658.31;6130095;23;20186;-82
2023/11/01 10:56:30;;;;;;;3.63;0.90;;;;;;;13.50;66.89;94651.63;6104933;23;20167;-81
2023/11/01 10:59:07;;;;;;;2.17;1.00;;;;;;;13.62;66.61;94653.75;6105761;23;20647;-81
2023/11/01 11:01:45;;;;;;;2.73;1.20;;;;;;;13.70;66.52;94649.22;6130069;23;20580;-80
2023/11/01 11:04:29;;;;;;;2.93;1.00;;;;;;;13.71;66.28;94642.19;6131536;23;20151;-83
2023/11/01 11:06:58;;;;;;;2.07;1.00;;;;;;;14.07;65.44;94631.59;6128491;23;20241;-82
2023/11/01 11:09:25;;;;;;;2.70;0.93;;;;;;;14.08;65.21;94625.38;6129715;23;20205;-81
2023/11/01 11:12:24;;;;;;;1.80;1.20;;;;;;;14.14;65.81;94627.25;6105618;23;20558;-81
2023/11/01 11:14:53;;;;;;;1.33;1.23;;;;;;;14.42;64.25;94619.34;6129096;23;20163;-82
2023/11/01 11:17:19;;;;;;;1.67;0.90;;;;;;;14.35;63.87;94613.28;6129477;23;20163;-79
2023/11/01 11:20:09;;;;;;;3.47;1.00;;;;;;;14.46;64.00;94610.16;6133094;23;20701;-82
2023/11/01 11:23:00;;;;;;;2.00;1.00;;;;;;;14.68;63.92;94608.25;6143366;23;20195;-82
2023/11/01 11:25:38;;;;;;;1.20;0.90;;;;;;;14.66;63.71;94608.41;6137518;23;20159;-82
2023/11/01 11:28:22;;;;;;;2.73;1.00;;;;;;;14.74;63.91;94602.22;6131365;23;20170;-82
2023/11/01 11:31:18;;;;;;;2.90;1.00;;;;;;;14.81;63.03;94597.81;6157832;23;20222;-81
2023/11/01 11:33:45;;;;;;;2.03;0.90;;;;;;;14.57;63.70;94590.50;6158504;23;20187;-80